Latest Weather Observations for Green Cape

IDN60801

Issued at 3:35 pm EST Saturday 20 September 2014 (issued every 30 minutes, with the page automatically refreshed every 10 minutes)

About weather observations | Map of weather stations | Latest weather observations for NSW | Other Formats
Station Details ID: 069137 Name: GREEN CAPE AWS Lat: -37.26 Lon: 150.05 Height: 19.4 m
Data from the previous 72 hours. | See also: Recent months at Green Cape
Date/Time
EST
Temp
°C
App
Temp
°C
Dew
Point
Rel
Hum
%
Delta-T
°C
Wind Press
QNH
hPa
Press
MSL
hPa
Rain
since 9 am
mm
Dir
 
Spd
km/h
Gust
km/h
Spd
kts
Gust
kts
20/03:30pm 15.6 8.6 8.4 62 3.6 SSW 35 43 19 23 1024.2 1024.2 0.0
20/03:00pm 15.8 8.6 7.6 58 4.1 SW 35 43 19 23 1024.2 1024.2 0.0
20/02:45pm 15.9 9.5 8.6 62 3.7 SW 32 33 17 18 1024.1 1024.1 0.0
20/02:30pm 16.0 8.6 8.5 61 3.8 WSW 37 43 20 23 1024.1 1024.1 0.0
20/02:00pm 16.0 9.4 8.5 61 3.8 WSW 33 41 18 22 1023.9 1023.9 0.0
20/01:30pm 16.1 9.7 8.6 61 3.8 WSW 32 39 17 21 1024.0 1024.0 0.0
20/01:00pm 15.4 8.0 8.2 62 3.6 SW 37 44 20 24 1023.8 1023.8 0.0
20/12:30pm 15.7 9.3 8.4 62 3.7 SW 32 41 17 22 1024.2 1024.2 0.0
20/12:00pm 14.7 8.3 8.6 67 3.1 SW 32 41 17 22 1024.3 1024.3 0.0
20/11:30am 14.8 7.8 8.5 66 3.2 SW 35 48 19 26 1024.5 1024.5 0.0
20/11:13am 14.5 7.1 8.2 66 3.2 WSW 37 57 20 31 1024.5 1024.5 0.0
20/11:00am 14.7 5.9 8.0 64 3.3 WSW 44 56 24 30 1024.3 1024.3 0.0
20/10:30am 14.2 5.0 8.2 67 3.0 WSW 46 57 25 31 1024.3 1024.3 0.0
20/10:00am 14.1 5.8 7.9 66 3.1 WSW 41 50 22 27 1024.1 1024.1 0.0
20/09:30am 13.6 3.9 7.6 67 2.9 WSW 48 57 26 31 1024.1 1024.1 0.0
20/09:00am 13.3 5.3 7.5 68 2.8 WSW 39 48 21 26 1024.1 1024.1 0.0
20/08:30am 13.0 5.4 7.7 70 2.6 WSW 37 44 20 24 1023.9 1023.9 0.0
20/08:00am 12.8 3.9 7.5 70 2.6 WSW 44 57 24 31 1023.4 1023.4 0.0
20/07:30am 12.6 3.6 7.1 69 2.7 WSW 44 56 24 30 1023.6 1023.6 0.0
20/07:00am 12.2 4.5 6.9 70 2.5 WSW 37 50 20 27 1023.2 1023.2 0.0
20/06:30am 12.1 4.0 6.8 70 2.5 WSW 39 52 21 28 1022.9 1022.9 0.0
20/06:00am 11.9 3.7 6.6 70 2.5 WSW 39 50 21 27 1022.5 1022.5 0.0
20/05:30am 12.0 3.8 6.7 70 2.5 WSW 39 48 21 26 1022.3 1022.3 0.0
20/05:00am 11.8 4.0 6.5 70 2.5 W 37 46 20 25 1022.0 1022.0 0.0
20/04:30am 11.9 3.0 6.8 71 2.4 WSW 43 52 23 28 1021.3 1021.3 0.0
20/04:00am 11.8 2.9 6.7 71 2.4 WSW 43 52 23 28 1021.2 1021.2 0.0
20/03:30am 11.9 3.8 7.0 72 2.3 W 39 50 21 27 1021.1 1021.1 0.0
20/03:00am 11.8 4.0 6.5 70 2.5 W 37 46 20 25 1021.1 1021.1 0.0
20/02:30am 11.8 3.2 6.5 70 2.5 W 41 54 22 29 1021.0 1021.0 0.0
20/02:06am 11.9 4.1 6.6 70 2.5 W 37 56 20 30 1021.2 1021.2 0.0
20/02:00am 11.9 4.1 6.6 70 2.5 WSW 37 44 20 24 1021.3 1021.3 0.0
20/01:30am 11.8 4.7 6.5 70 2.5 WSW 33 46 18 25 1021.5 1021.5 0.0
20/01:00am 11.9 5.0 6.4 69 2.6 SW 32 41 17 22 1021.4 1021.4 0.0
20/12:30am 12.2 5.4 7.1 71 2.5 WSW 32 44 17 24 1021.3 1021.3 0.0
20/12:00am 12.4 5.6 7.7 73 2.3 WSW 33 39 18 21 1021.0 1021.0 0.0
 
Date/Time
EST
Temp
°C
App
Temp
°C
Dew
Point
Rel
Hum
%
Delta-T
°C
Wind Press
QNH
hPa
Press
MSL
hPa
Rain
since 9 am
mm
Dir
 
Spd
km/h
Gust
km/h
Spd
kts
Gust
kts
19/11:30pm 12.4 6.9 7.7 73 2.3 WSW 26 35 14 19 1021.0 1021.0 0.0
19/11:00pm 12.5 5.3 7.8 73 2.3 SW 35 43 19 23 1020.8 1020.8 0.0
19/10:30pm 12.7 5.2 8.0 73 2.3 WSW 37 48 20 26 1020.8 1020.8 0.0
19/10:00pm 12.6 6.0 7.9 73 2.3 WSW 32 39 17 21 1020.8 1020.8 0.0
19/09:30pm 12.7 5.2 7.8 72 2.4 WSW 37 48 20 26 1020.8 1020.8 0.0
19/09:00pm 13.0 6.3 8.1 72 2.4 WSW 33 43 18 23 1020.9 1020.9 0.0
19/08:30pm 12.8 6.2 7.7 71 2.5 WSW 32 43 17 23 1021.0 1021.0 0.0
19/08:00pm 12.9 6.7 7.8 71 2.5 WSW 30 37 16 20 1021.0 1021.0 0.0
19/07:30pm 13.0 6.4 7.9 71 2.5 SW 32 37 17 20 1020.8 1020.8 0.0
19/07:00pm 13.2 6.4 7.6 69 2.7 SW 33 41 18 22 1020.4 1020.4 0.0
19/06:30pm 13.4 6.1 7.4 67 2.9 SW 35 43 19 23 1020.1 1020.1 0.0
19/06:00pm 13.7 6.0 7.0 64 3.2 WSW 37 48 20 26 1019.9 1019.9 0.0
19/05:30pm 14.0 5.6 7.3 64 3.3 WSW 41 54 22 29 1019.5 1019.5 0.0
19/05:00pm 14.6 6.8 6.7 59 3.8 WSW 37 43 20 23 1019.3 1019.3 0.0
19/04:30pm 14.7 5.8 6.8 59 3.8 SW 43 56 23 30 1019.0 1019.0 0.0
19/04:00pm 15.1 6.5 6.4 56 4.2 SW 41 56 22 30 1018.6 1018.6 0.0
19/03:30pm 15.5 7.4 7.0 57 4.2 WSW 39 46 21 25 1018.6 1018.6 0.0
19/03:00pm 15.4 6.8 6.4 55 4.4 SW 41 56 22 30 1018.5 1018.5 0.0
19/02:42pm 15.5 6.2 6.0 53 4.6 WSW 44 67 24 36 1018.3 1018.3 0.0
19/02:30pm 15.6 5.6 6.3 54 4.5 WSW 48 59 26 32 1018.5 1018.5 0.0
19/02:00pm 15.0 5.9 5.8 54 4.4 WSW 43 65 23 35 1018.5 1018.5 0.0
19/01:30pm 14.8 5.0 6.9 59 3.9 WSW 48 57 26 31 1018.8 1018.8 0.0
19/01:21pm 14.9 7.1 6.5 57 4.1 SW 37 46 20 25 1018.8 1018.8 0.0
19/01:00pm 15.4 7.2 6.7 56 4.2 WSW 39 52 21 28 1019.0 1019.0 0.0
19/12:33pm 15.2 7.0 6.5 56 4.2 WSW 39 57 21 31 1019.5 1019.5 0.0
19/12:30pm 15.2 6.6 6.5 56 4.2 WSW 41 54 22 29 1019.4 1019.4 0.0
19/12:00pm 14.8 6.3 6.9 59 3.8 WSW 41 54 22 29 1019.8 1019.8 0.0
19/11:30am 14.4 6.0 5.7 56 4.1 WSW 39 56 21 30 1020.2 1020.2 0.0
19/11:04am 14.7 7.3 6.8 59 3.8 WSW 35 56 19 30 1020.0 1020.0 0.0
19/11:00am 14.3 7.2 6.2 58 3.9 WSW 33 43 18 23 1020.2 1020.2 0.0
19/10:30am 14.3 6.4 6.4 59 3.8 WSW 37 50 20 27 1020.2 1020.2 0.0
19/10:00am 13.9 5.7 6.7 62 3.5 WSW 39 48 21 26 1020.5 1020.5 0.0
19/09:30am 13.5 5.3 6.4 62 3.4 WSW 39 48 21 26 1020.5 1020.5 0.0
19/09:00am 13.1 4.4 6.2 63 3.3 W 41 46 22 25 1020.4 1020.4 0.0
19/08:30am 12.5 4.5 5.7 63 3.2 WSW 37 48 20 26 1020.4 1020.4 0.0
19/08:00am 11.9 3.4 5.3 64 3.0 W 39 52 21 28 1020.3 1020.3 0.0
19/07:30am 11.4 2.8 4.8 64 3.0 W 39 46 21 25 1020.2 1020.2 0.0
19/07:00am 10.9 2.6 4.1 63 3.0 W 37 52 20 28 1020.2 1020.2 0.0
19/06:30am 10.6 3.3 4.3 65 2.8 W 32 41 17 22 1020.2 1020.2 0.0
19/06:00am 10.7 2.1 4.4 65 2.8 W 39 48 21 26 1019.8 1019.8 0.0
19/05:30am 10.5 2.6 4.2 65 2.8 W 35 43 19 23 1019.6 1019.6 0.0
19/05:00am 10.5 3.0 4.4 66 2.7 W 33 43 18 23 1019.5 1019.5 0.0
19/04:30am 10.6 3.1 4.3 65 2.8 W 33 41 18 22 1019.5 1019.5 0.0
19/04:00am 10.8 2.8 4.0 63 3.0 WSW 35 41 19 22 1019.6 1019.6 0.0
19/03:30am 10.7 2.0 4.0 63 3.0 WSW 39 50 21 27 1019.4 1019.4 0.0
19/03:00am 10.8 2.9 4.5 65 2.8 WSW 35 43 19 23 1019.6 1019.6 0.0
19/02:30am 10.9 1.9 4.8 66 2.8 WSW 41 52 22 28 1019.7 1019.7 0.0
19/02:00am 10.9 1.3 4.6 65 2.8 WSW 44 56 24 30 1019.7 1019.7 0.0
19/01:30am 10.9 1.3 4.4 64 2.9 WSW 44 57 24 31 1019.8 1019.8 0.0
19/01:00am 11.0 1.4 4.5 64 2.9 WSW 44 56 24 30 1020.0 1020.0 0.0
19/12:30am 11.2 1.8 5.3 67 2.7 WSW 44 57 24 31 1020.1 1020.1 0.0
19/12:00am 11.3 2.2 6.0 70 2.5 WSW 43 54 23 29 1020.0 1020.0 0.0
 
Date/Time
EST
Temp
°C
App
Temp
°C
Dew
Point
Rel
Hum
%
Delta-T
°C
Wind Press
QNH
hPa
Press
MSL
hPa
Rain
since 9 am
mm
Dir
 
Spd
km/h
Gust
km/h
Spd
kts
Gust
kts
18/11:30pm 11.4 1.8 6.1 70 2.5 WSW 46 57 25 31 1020.0 1020.0 0.0
18/11:00pm 11.4 2.2 6.3 71 2.4 WSW 44 56 24 30 1019.9 1019.9 0.0
18/10:30pm 11.5 2.3 6.2 70 2.5 WSW 44 57 24 31 1020.0 1020.0 0.0
18/10:00pm 11.3 4.3 6.0 70 2.5 WSW 32 43 17 23 1020.1 1020.1 0.0
18/09:30pm 11.4 6.3 5.9 69 2.6 WSW 22 30 12 16 1020.2 1020.2 0.0
18/09:00pm 10.9 6.1 5.4 69 2.5 WSW 20 30 11 16 1020.1 1020.1 0.0
18/08:30pm 10.9 5.8 5.9 71 2.3 W 22 32 12 17 1020.2 1020.2 0.0
18/08:00pm 11.1 5.6 5.8 70 2.4 WSW 24 35 13 19 1020.0 1020.0 0.0
18/07:30pm 11.0 5.1 5.7 70 2.5 WSW 26 33 14 18 1020.0 1020.0 0.0
18/07:00pm 11.6 4.6 5.9 68 2.7 WSW 32 39 17 21 1019.8 1019.8 0.0
18/06:30pm 11.7 4.7 6.0 68 2.7 WSW 32 39 17 21 1019.6 1019.6 0.0
18/06:00pm 12.6 4.9 5.5 62 3.3 WSW 35 52 19 28 1019.0 1019.0 0.0
18/05:55pm 12.6 5.3 5.5 62 3.3 WSW 33 52 18 28 1018.9 1018.9 0.0
18/05:30pm 12.8 5.0 5.0 59 3.6 SW 35 44 19 24 1018.6 1018.6 0.0
18/05:00pm 13.1 5.7 4.8 57 3.8 SW 33 43 18 23 1018.5 1018.5 0.0
18/04:30pm 13.3 3.9 4.7 56 4.0 SW 43 56 23 30 1018.0 1018.0 0.0
18/04:15pm 13.6 3.3 4.7 55 4.1 SW 48 67 26 36 1017.7 1017.7 0.0
18/04:00pm 13.6 4.7 5.3 57 3.9 SSW 41 48 22 26 1017.7 1017.7 0.0
18/03:30pm 13.7 4.4 4.8 55 4.1 SW 43 54 23 29 1017.1 1017.1 0.0
18/03:04pm 13.8 5.1 4.1 52 4.4 SW 39 61 21 33 1017.0 1017.0 0.0
18/03:00pm 14.0 5.2 5.6 57 4.0 SW 41 52 22 28 1017.1 1017.1 0.0
18/02:30pm 14.1 4.4 3.8 50 4.7 WSW 44 59 24 32 1017.0 1017.0 0.0
18/02:00pm 14.1 2.9 4.1 51 4.6 WSW 52 67 28 36 1017.1 1017.1 0.0
18/01:31pm 14.4 5.3 4.1 50 4.7 WSW 41 59 22 32 1016.9 1016.9 0.0
18/01:30pm 14.4 5.4 4.7 52 4.5 WSW 41 56 22 30 1016.7 1016.7 0.0
18/01:00pm 14.2 4.3 4.8 53 4.4 SW 46 57 25 31 1016.7 1016.7 0.0
18/12:33pm 13.8 6.1 5.2 56 4.0 WSW 35 54 19 29 1016.9 1016.9 0.0
18/12:30pm 13.7 5.1 4.8 55 4.1 WSW 39 56 21 30 1017.0 1017.0 0.0
18/12:19pm 14.0 5.6 5.4 56 4.0 WSW 39 59 21 32 1016.9 1016.9 0.0
18/12:00pm 13.7 4.3 5.6 58 3.8 WSW 44 54 24 29 1016.9 1016.9 0.0
18/11:30am 12.8 3.5 5.2 60 3.5 WSW 43 59 23 32 1017.3 1017.3 0.0
18/11:00am 13.1 3.9 5.5 60 3.6 WSW 43 59 23 32 1017.2 1017.2 0.0
18/10:30am 13.2 4.8 5.6 60 3.6 WSW 39 57 21 31 1017.2 1017.2 0.0
18/10:10am 12.6 4.0 4.8 59 3.6 WSW 39 61 21 33 1017.2 1017.2 0.0
18/10:00am 12.5 3.2 5.2 61 3.4 WSW 43 59 23 32 1017.3 1017.3 0.0
18/09:36am 12.5 3.1 5.2 61 3.4 WSW 44 63 24 34 1017.1 1017.1 0.0
18/09:30am 12.3 3.4 5.0 61 3.4 WSW 41 56 22 30 1017.0 1017.0 0.0
18/09:05am 12.0 2.1 4.7 61 3.3 WSW 46 65 25 35 1016.5 1016.5 0.0
18/09:00am 12.0 1.8 5.0 62 3.2 WSW 48 61 26 33 1016.5 1016.5 -
18/08:50am 11.9 1.6 4.9 62 3.2 WSW 48 70 26 38 1016.4 1016.4 -
18/08:30am 11.7 2.2 4.9 63 3.1 WSW 44 56 24 30 1016.5 1016.5 -
18/08:00am 11.1 0.8 4.6 64 2.9 WSW 48 63 26 34 1016.1 1016.1 -
18/07:30am 10.9 0.7 5.0 67 2.7 WSW 48 67 26 36 1015.7 1015.7 -
18/07:22am 10.9 0.2 4.8 66 2.8 WSW 50 69 27 37 1015.6 1015.6 -
18/07:00am 10.7 -0.3 5.0 68 2.6 WSW 52 67 28 36 1015.3 1015.3 -
18/06:43am 10.5 -0.5 4.9 68 2.5 W 52 74 28 40 1014.9 1014.9 -
18/06:30am 10.4 -0.7 4.5 67 2.6 W 52 67 28 36 1014.9 1014.9 -
18/06:00am 10.3 -0.5 4.2 66 2.7 WSW 50 67 27 36 1014.2 1014.2 -
18/05:58am 10.4 0.1 4.5 67 2.6 WSW 48 67 26 36 1014.2 1014.2 -
18/05:30am 10.4 -1.1 4.5 67 2.6 WSW 54 67 29 36 1013.7 1013.7 -
18/05:00am 10.3 -1.7 4.0 65 2.8 WSW 56 67 30 36 1013.7 1013.7 -
18/04:33am 10.3 -0.6 3.6 63 2.9 WSW 50 70 27 38 1013.4 1013.4 -
18/04:30am 10.5 0.1 4.0 64 2.9 W 48 63 26 34 1013.6 1013.6 -
18/04:16am 10.3 0.1 3.3 62 3.0 W 46 69 25 37 1013.4 1013.4 -
18/04:00am 10.3 0.7 3.6 63 2.9 W 43 54 23 29 1013.5 1013.5 -
18/03:53am 10.3 2.3 3.6 63 2.9 WSW 35 54 19 29 1013.5 1013.5 -
18/03:30am 10.1 2.3 2.9 61 3.1 W 33 44 18 24 1013.6 1013.6 -
18/03:00am 10.0 1.9 3.3 63 2.9 W 35 48 19 26 1013.6 1013.6 0.0
18/02:30am 10.0 0.7 3.1 62 3.0 W 41 50 22 27 1013.6 1013.6 -
18/02:00am 10.2 1.3 3.0 61 3.1 W 39 52 21 28 1013.7 1013.7 -
18/01:39am 9.8 1.1 2.2 59 3.2 W 37 59 20 32 1013.7 1013.7 -
18/01:30am 9.8 1.5 2.4 60 3.1 W 35 44 19 24 1013.7 1013.7 -
18/01:00am 9.8 2.1 2.2 59 3.2 W 32 41 17 22 1014.1 1014.1 -
18/12:30am 10.1 2.3 2.7 60 3.2 W 33 43 18 23 1014.2 1014.2 -
18/12:00am 10.2 0.2 2.3 58 3.4 WSW 44 54 24 29 1014.3 1014.3 -
 
Date/Time
EST
Temp
°C
App
Temp
°C
Dew
Point
Rel
Hum
%
Delta-T
°C
Wind Press
QNH
hPa
Press
MSL
hPa
Rain
since 9 am
mm
Dir
 
Spd
km/h
Gust
km/h
Spd
kts
Gust
kts
17/11:30pm 10.4 0.1 2.7 59 3.3 WSW 46 57 25 31 1014.1 1014.1 -
17/11:00pm 10.6 0.1 3.6 62 3.1 WSW 48 59 26 32 1014.0 1014.0 -
17/10:30pm 10.6 -0.4 2.9 59 3.3 WSW 50 67 27 36 1013.8 1013.8 -
17/10:05pm 10.9 -0.3 3.9 62 3.1 WSW 52 72 28 39 1013.6 1013.6 -
17/10:00pm 10.9 -0.7 3.9 62 3.1 WSW 54 72 29 39 1013.3 1013.3 -
17/09:30pm 11.0 1.6 4.2 63 3.0 WSW 43 63 23 34 1013.5 1013.5 -
17/09:14pm 11.0 1.5 4.0 62 3.1 WSW 43 63 23 34 1013.3 1013.3 -
17/09:00pm 11.2 1.7 4.7 64 2.9 WSW 44 54 24 29 1013.2 1013.2 0.0
17/08:30pm 11.3 1.7 4.5 63 3.1 WSW 44 57 24 31 1012.6 1012.6 -
17/08:00pm 11.7 2.4 6.0 68 2.7 WSW 44 56 24 30 1012.5 1012.5 -
17/07:50pm 11.2 3.8 6.7 74 2.1 WSW 35 57 19 31 1012.4 1012.4 -
17/07:30pm 11.2 2.7 6.9 75 2.0 WSW 41 54 22 29 1012.3 1012.3 -
17/07:00pm 11.8 1.2 6.9 72 2.3 SW 52 69 28 37 1011.6 1011.6 -
17/06:51pm 12.1 2.3 7.0 71 2.4 SW 48 67 26 36 1011.2 1011.2 -
17/06:30pm 12.2 2.4 7.1 71 2.5 WSW 48 59 26 32 1011.0 1011.0 -
17/06:00pm 12.5 4.1 7.4 71 2.5 WSW 41 52 22 28 1010.7 1010.7 -
17/05:30pm 12.8 4.4 7.5 70 2.6 WSW 41 59 22 32 1010.3 1010.3 -
17/05:00pm 13.5 4.7 8.1 70 2.7 SW 44 57 24 31 1009.6 1009.6 -
17/04:30pm 14.5 5.6 7.5 63 3.5 WSW 44 56 24 30 1008.8 1008.8 -
17/04:00pm 14.9 5.3 7.9 63 3.5 SW 48 57 26 31 1008.2 1008.2 -

Other Formats:

Comma delimited format used in spreadsheet applications
http://www.bom.gov.au/fwo/IDN60801/IDN60801.94934.axf

JavaScript Object Notation format (JSON) in row-major order
http://www.bom.gov.au/fwo/IDN60801/IDN60801.94934.json